createdAt,value
2019-02-16T00:01:59.022Z,6.30
2019-02-16T00:04:25.804Z,6.40
2019-02-16T00:06:52.446Z,6.20
2019-02-16T00:09:19.239Z,6.20
2019-02-16T00:11:45.859Z,6.10
2019-02-16T00:14:12.621Z,6.20
2019-02-16T00:16:39.428Z,6.30
2019-02-16T00:19:06.714Z,6.10
2019-02-16T00:21:33.404Z,6.10
2019-02-16T00:24:00.764Z,6.20
2019-02-16T00:26:27.461Z,6.20
2019-02-16T00:28:54.193Z,6.00
2019-02-16T00:31:21.022Z,5.90
2019-02-16T00:33:47.601Z,5.70
2019-02-16T00:36:14.124Z,5.90
2019-02-16T00:38:40.901Z,6.00
2019-02-16T00:41:07.577Z,5.80
2019-02-16T00:43:34.210Z,5.80
2019-02-16T00:46:00.985Z,5.80
2019-02-16T00:48:28.074Z,5.70
2019-02-16T00:50:54.703Z,5.60
2019-02-16T00:53:21.392Z,5.70
2019-02-16T00:55:48.084Z,5.60
2019-02-16T00:58:14.957Z,5.30
2019-02-16T01:00:41.577Z,5.60
2019-02-16T01:03:08.337Z,5.80
2019-02-16T01:05:35.709Z,5.50
2019-02-16T01:08:02.663Z,5.50
2019-02-16T01:10:29.344Z,5.60
2019-02-16T01:12:56.081Z,5.40
2019-02-16T01:15:24.053Z,5.40
2019-02-16T01:17:51.027Z,5.30
2019-02-16T01:20:17.601Z,5.30
2019-02-16T01:22:44.287Z,5.50
2019-02-16T01:25:11.016Z,5.30
2019-02-16T01:27:37.673Z,5.40
2019-02-16T01:30:07.137Z,5.30
2019-02-16T01:32:33.790Z,5.20
2019-02-16T01:35:00.433Z,5.20
2019-02-16T01:37:27.111Z,5.20
2019-02-16T01:39:53.836Z,5.20
2019-02-16T01:42:20.514Z,5.10
2019-02-16T01:44:47.140Z,5.30
2019-02-16T01:47:13.932Z,5.20
2019-02-16T01:49:40.675Z,5.40
2019-02-16T01:52:07.459Z,5.50
2019-02-16T01:54:34.084Z,5.20
2019-02-16T01:57:00.832Z,5.10
2019-02-16T01:59:27.545Z,5.20
2019-02-16T02:01:54.228Z,5.00
2019-02-16T02:04:20.981Z,5.20
2019-02-16T02:06:47.761Z,5.20
2019-02-16T02:09:14.544Z,5.30
2019-02-16T02:11:41.279Z,5.00
2019-02-16T02:14:09.630Z,5.10
2019-02-16T02:19:17.669Z,5.20
2019-02-16T02:21:44.268Z,5.10
2019-02-16T02:24:10.949Z,5.10
2019-02-16T02:26:37.773Z,5.30
2019-02-16T02:29:04.346Z,5.00
2019-02-16T02:31:31.000Z,5.10
2019-02-16T02:33:57.637Z,5.10
2019-02-16T02:36:24.292Z,5.00
2019-02-16T02:38:50.920Z,5.10
2019-02-16T02:41:17.587Z,4.90
2019-02-16T02:43:44.264Z,5.00
2019-02-16T02:46:10.927Z,4.90
2019-02-16T02:48:37.569Z,4.80
2019-02-16T02:51:04.242Z,4.80
2019-02-16T02:53:31.838Z,5.00
2019-02-16T02:55:58.577Z,4.90
2019-02-16T02:58:25.297Z,4.90
2019-02-16T03:00:51.858Z,4.80
2019-02-16T03:03:18.531Z,5.00
2019-02-16T03:05:45.166Z,5.00
2019-02-16T03:08:11.822Z,4.90
2019-02-16T03:10:38.556Z,4.90
2019-02-16T03:13:05.251Z,4.90
2019-02-16T03:15:31.860Z,4.90
2019-02-16T03:17:58.559Z,4.50
2019-02-16T03:20:25.256Z,4.80
2019-02-16T03:23:11.783Z,4.90
2019-02-16T03:25:38.799Z,5.20
2019-02-16T03:28:15.172Z,4.80
2019-02-16T03:30:48.542Z,4.80
2019-02-16T03:33:28.125Z,4.80
2019-02-16T03:36:07.660Z,4.70
2019-02-16T03:38:43.560Z,4.90
2019-02-16T03:41:10.261Z,4.90
2019-02-16T03:43:36.883Z,5.00
2019-02-16T03:46:03.560Z,4.90
2019-02-16T03:48:30.212Z,4.90
2019-02-16T03:50:56.881Z,4.70
2019-02-16T03:53:23.536Z,4.50
2019-02-16T03:55:50.191Z,4.80
2019-02-16T03:58:16.812Z,5.00
2019-02-16T04:00:43.437Z,4.70
2019-02-16T04:03:10.104Z,4.50
2019-02-16T04:05:36.721Z,4.90
2019-02-16T04:08:03.400Z,4.90
2019-02-16T04:10:30.021Z,5.00
2019-02-16T04:12:56.681Z,5.10
2019-02-16T04:15:23.311Z,4.80
2019-02-16T04:17:50.060Z,4.70
2019-02-16T04:20:16.671Z,4.90
2019-02-16T04:22:43.426Z,4.60
2019-02-16T04:25:10.069Z,4.70
2019-02-16T04:27:37.054Z,4.40
2019-02-16T04:30:04.965Z,4.20
2019-02-16T04:32:31.635Z,4.20
2019-02-16T04:34:58.315Z,4.40
2019-02-16T04:37:24.956Z,4.50
2019-02-16T04:39:51.619Z,4.10
2019-02-16T04:42:18.328Z,4.30
2019-02-16T04:44:45.009Z,4.40
2019-02-16T04:47:11.624Z,4.20
2019-02-16T04:49:38.285Z,4.20
2019-02-16T04:52:04.911Z,4.50
2019-02-16T04:54:31.572Z,4.40
2019-02-16T04:56:58.198Z,4.80
2019-02-16T04:59:24.875Z,4.90
2019-02-16T05:01:51.536Z,4.80
2019-02-16T05:04:18.196Z,4.60
2019-02-16T05:06:44.824Z,4.60
2019-02-16T05:09:11.452Z,4.30
2019-02-16T05:11:38.117Z,4.60
2019-02-16T05:14:04.739Z,4.50
2019-02-16T05:16:31.460Z,4.40
2019-02-16T05:18:58.140Z,4.60
2019-02-16T05:21:24.796Z,4.30
2019-02-16T05:23:51.412Z,4.40
2019-02-16T05:26:18.080Z,4.40
2019-02-16T05:28:44.715Z,4.30
2019-02-16T05:31:11.403Z,4.20
2019-02-16T05:33:38.029Z,4.20
2019-02-16T05:36:04.700Z,4.20
2019-02-16T05:38:31.352Z,4.30
2019-02-16T05:40:58.008Z,4.00
2019-02-16T05:43:24.686Z,4.40
2019-02-16T05:45:51.351Z,4.10
2019-02-16T05:48:17.877Z,4.20
2019-02-16T05:50:44.570Z,4.50
2019-02-16T05:53:11.266Z,4.20
2019-02-16T05:55:37.951Z,4.20
2019-02-16T05:58:04.592Z,4.10
2019-02-16T06:00:31.548Z,3.80
2019-02-16T06:02:58.188Z,3.90
2019-02-16T06:05:24.906Z,4.10
2019-02-16T06:07:51.580Z,4.10
2019-02-16T06:10:18.296Z,4.20
2019-02-16T06:12:45.007Z,3.90
2019-02-16T06:15:11.869Z,4.00
2019-02-16T06:17:38.715Z,4.00
2019-02-16T06:20:07.312Z,4.00
2019-02-16T06:22:34.772Z,4.00
2019-02-16T06:25:01.490Z,3.90
2019-02-16T06:27:28.261Z,3.80
2019-02-16T06:29:54.892Z,3.90
2019-02-16T06:32:21.573Z,4.00
2019-02-16T06:34:50.180Z,3.90
2019-02-16T06:37:23.892Z,3.90
2019-02-16T06:39:50.536Z,3.70
2019-02-16T06:42:17.256Z,3.90
2019-02-16T06:44:44.463Z,4.00
2019-02-16T06:47:11.153Z,4.00
2019-02-16T06:49:37.780Z,4.00
2019-02-16T06:52:04.460Z,3.90
2019-02-16T06:54:31.198Z,4.10
2019-02-16T06:57:02.301Z,4.20
2019-02-16T06:59:28.947Z,4.40
2019-02-16T07:01:55.681Z,4.40
2019-02-16T07:04:22.349Z,4.80
2019-02-16T07:06:48.994Z,4.90
2019-02-16T07:09:15.653Z,4.90
2019-02-16T07:11:42.308Z,4.80
2019-02-16T07:14:08.876Z,4.70
2019-02-16T07:16:39.933Z,4.60
2019-02-16T07:19:08.609Z,4.80
2019-02-16T07:21:35.277Z,4.90
2019-02-16T07:24:01.898Z,4.90
2019-02-16T07:26:28.582Z,4.80
2019-02-16T07:28:55.231Z,4.70
2019-02-16T07:31:22.008Z,5.00
2019-02-16T07:33:48.621Z,5.10
2019-02-16T07:36:15.387Z,5.10
2019-02-16T07:38:42.006Z,5.30
2019-02-16T07:41:08.644Z,5.20
2019-02-16T07:43:49.034Z,5.60
2019-02-16T07:46:17.577Z,5.60
2019-02-16T07:49:05.917Z,5.80
2019-02-16T07:51:50.869Z,5.80
2019-02-16T07:54:22.410Z,5.70
2019-02-16T07:56:51.044Z,5.70
2019-02-16T07:59:22.327Z,5.60
2019-02-16T08:01:54.084Z,5.50
2019-02-16T08:04:31.668Z,5.70
2019-02-16T08:07:00.252Z,5.80
2019-02-16T08:09:34.632Z,6.10
2019-02-16T08:12:03.231Z,5.90
2019-02-16T08:14:37.302Z,6.30
2019-02-16T08:17:06.072Z,6.00
2019-02-16T08:19:43.636Z,5.80
2019-02-16T08:22:12.294Z,6.00
2019-02-16T08:24:49.496Z,5.90
2019-02-16T08:27:23.852Z,6.20
2019-02-16T08:29:52.430Z,6.10
2019-02-16T08:32:23.828Z,6.30
2019-02-16T08:35:08.807Z,6.10
2019-02-16T08:37:40.115Z,6.00
2019-02-16T08:40:08.682Z,6.30
2019-02-16T08:42:40.324Z,6.40
2019-02-16T08:45:08.927Z,6.70
2019-02-16T08:47:37.476Z,7.00
2019-02-16T08:50:09.088Z,7.00
2019-02-16T08:52:37.609Z,7.00
2019-02-16T08:55:09.436Z,7.10
2019-02-16T08:57:54.413Z,7.30
2019-02-16T09:00:32.052Z,7.30
2019-02-16T09:03:09.418Z,7.30
2019-02-16T09:05:40.820Z,7.30
2019-02-16T09:08:15.195Z,7.50
2019-02-16T09:10:46.528Z,7.40
2019-02-16T09:13:15.143Z,7.60
2019-02-16T09:16:00.411Z,7.60
2019-02-16T09:18:40.996Z,7.90
2019-02-16T09:21:15.330Z,7.90
2019-02-16T09:23:44.023Z,8.00
2019-02-16T09:26:12.553Z,8.00
2019-02-16T09:28:50.050Z,8.20
2019-02-16T09:31:24.168Z,8.50
2019-02-16T09:34:01.594Z,8.40
2019-02-16T09:36:30.269Z,8.60
2019-02-16T09:39:15.571Z,8.60
2019-02-16T09:41:49.920Z,8.70
2019-02-16T09:44:21.211Z,8.80
2019-02-16T09:46:49.795Z,8.80
2019-02-16T09:49:18.351Z,8.90
2019-02-16T09:51:47.000Z,9.00
2019-02-16T09:54:18.592Z,9.00
2019-02-16T09:56:56.016Z,9.10
2019-02-16T09:59:27.496Z,9.20
2019-02-16T10:01:59.048Z,9.30
2019-02-16T10:04:30.417Z,9.50
2019-02-16T10:06:58.941Z,9.70
2019-02-16T10:09:33.310Z,9.70
2019-02-16T10:12:13.764Z,10.00
2019-02-16T10:14:42.350Z,10.00
2019-02-16T10:17:19.903Z,9.90
2019-02-16T10:19:57.557Z,10.10
2019-02-16T10:22:42.755Z,10.30
2019-02-16T10:25:11.316Z,10.50
2019-02-16T10:27:39.853Z,10.50
2019-02-16T10:30:13.960Z,10.30
2019-02-16T10:32:51.698Z,10.50
2019-02-16T10:35:36.874Z,10.70
2019-02-16T10:38:08.235Z,10.90
2019-02-16T10:40:39.442Z,10.90
2019-02-16T10:43:16.847Z,10.90
2019-02-16T10:46:02.112Z,11.10
2019-02-16T10:48:30.657Z,11.30
2019-02-16T10:51:15.666Z,11.50
2019-02-16T10:53:44.245Z,11.70
2019-02-16T10:56:21.680Z,11.30
2019-02-16T10:58:55.767Z,11.30
2019-02-16T11:01:29.871Z,11.20
2019-02-16T11:04:16.660Z,11.40
2019-02-16T11:06:57.389Z,11.60
2019-02-16T11:09:40.868Z,11.50
2019-02-16T11:12:09.468Z,11.80
2019-02-16T11:14:55.941Z,11.80
2019-02-16T11:17:27.344Z,11.70
2019-02-16T11:20:01.455Z,12.00
2019-02-16T11:22:44.924Z,12.00
2019-02-16T11:25:19.205Z,11.90
2019-02-16T11:27:56.769Z,11.80
2019-02-16T11:30:34.148Z,12.20
2019-02-16T11:33:02.745Z,12.60
2019-02-16T11:35:47.681Z,12.40
2019-02-16T11:38:16.459Z,12.40
2019-02-16T11:41:08.862Z,12.70
2019-02-16T11:43:41.155Z,12.60
2019-02-16T11:46:26.389Z,12.70
2019-02-16T11:49:11.674Z,12.90
2019-02-16T11:51:40.279Z,12.90
2019-02-16T11:54:08.881Z,12.90
2019-02-16T11:56:49.485Z,12.90
2019-02-16T11:59:34.812Z,12.80
2019-02-16T12:02:21.536Z,12.90
2019-02-16T12:04:50.304Z,13.50
2019-02-16T12:07:22.925Z,13.40
2019-02-16T12:09:51.503Z,13.30
2019-02-16T12:12:22.817Z,13.30
2019-02-16T12:15:06.288Z,13.10
2019-02-16T12:17:40.911Z,13.40
2019-02-16T12:20:09.627Z,13.50
2019-02-16T12:22:43.748Z,13.50
2019-02-16T12:25:17.877Z,13.50
2019-02-16T12:27:52.323Z,13.40
2019-02-16T12:30:23.608Z,13.70
2019-02-16T12:32:52.129Z,13.70
2019-02-16T12:35:32.596Z,13.70
2019-02-16T12:38:16.249Z,13.70
2019-02-16T12:40:47.648Z,13.70
2019-02-16T12:43:16.248Z,13.80
2019-02-16T12:45:53.752Z,14.20
2019-02-16T12:48:25.111Z,14.00
2019-02-16T12:50:59.601Z,14.20
2019-02-16T12:53:36.944Z,14.50
2019-02-16T12:56:05.381Z,14.40
2019-02-16T12:58:34.165Z,14.70
2019-02-16T13:01:08.759Z,14.50
2019-02-16T13:03:46.355Z,14.50
2019-02-16T13:06:14.918Z,14.70
2019-02-16T13:08:43.471Z,14.90
2019-02-16T13:11:30.217Z,14.60
2019-02-16T13:14:13.968Z,14.70
2019-02-16T13:16:59.331Z,14.50
2019-02-16T13:19:44.484Z,14.40
2019-02-16T13:22:15.894Z,14.70
2019-02-16T13:24:50.448Z,14.70
2019-02-16T13:27:24.886Z,15.20
2019-02-16T13:30:02.469Z,14.50
2019-02-16T13:32:33.484Z,14.50
2019-02-16T13:35:20.234Z,14.50
2019-02-16T13:37:51.763Z,14.70
2019-02-16T13:40:36.808Z,15.10
2019-02-16T13:43:05.365Z,15.30
2019-02-16T13:45:48.743Z,15.40
2019-02-16T13:48:20.060Z,15.30
2019-02-16T13:50:51.927Z,15.20
2019-02-16T13:53:20.468Z,15.10
2019-02-16T13:55:49.028Z,15.30
2019-02-16T13:58:17.544Z,15.30
2019-02-16T14:00:51.944Z,15.40
2019-02-16T14:03:32.594Z,15.30
2019-02-16T14:06:06.927Z,15.30
2019-02-16T14:08:41.487Z,15.20
2019-02-16T14:11:18.934Z,15.00
2019-02-16T14:13:47.288Z,14.90
2019-02-16T14:16:15.948Z,14.70
2019-02-16T14:18:42.568Z,14.90
2019-02-16T14:21:09.244Z,14.70
2019-02-16T14:23:35.865Z,14.40
2019-02-16T14:26:02.944Z,14.40
2019-02-16T14:28:29.645Z,14.20
2019-02-16T14:30:56.412Z,14.30
2019-02-16T14:33:23.028Z,14.10
2019-02-16T14:35:49.849Z,13.90
2019-02-16T14:38:21.143Z,14.00
2019-02-16T14:40:47.838Z,13.90
2019-02-16T14:43:14.442Z,13.90
2019-02-16T14:45:41.233Z,13.80
2019-02-16T14:48:07.912Z,13.90
2019-02-16T14:50:34.650Z,13.80
2019-02-16T14:53:01.367Z,13.70
2019-02-16T14:55:28.001Z,13.70
2019-02-16T14:57:54.666Z,13.60
2019-02-16T15:00:21.357Z,13.50
2019-02-16T15:02:47.972Z,13.60
2019-02-16T15:05:14.789Z,13.50
2019-02-16T15:07:41.422Z,13.50
2019-02-16T15:10:10.002Z,13.40
2019-02-16T15:12:36.865Z,13.40
2019-02-16T15:15:05.623Z,13.40
2019-02-16T15:17:32.389Z,13.40
2019-02-16T15:20:00.482Z,13.30
2019-02-16T15:22:27.325Z,13.30
2019-02-16T15:24:53.985Z,13.30
2019-02-16T15:27:20.803Z,13.30
2019-02-16T15:29:47.487Z,13.30
2019-02-16T15:32:14.876Z,13.30
2019-02-16T15:34:41.502Z,13.20
2019-02-16T15:37:08.119Z,13.20
2019-02-16T15:39:34.890Z,13.10
2019-02-16T15:42:03.019Z,13.10
2019-02-16T15:44:29.830Z,13.00
2019-02-16T15:46:56.495Z,13.00
2019-02-16T15:49:24.241Z,13.00
2019-02-16T15:51:51.032Z,13.00
2019-02-16T15:54:17.735Z,12.90
2019-02-16T15:56:44.417Z,12.90
2019-02-16T15:59:11.160Z,12.80
2019-02-16T16:01:37.919Z,12.90
2019-02-16T16:04:04.696Z,12.80
2019-02-16T16:06:31.348Z,12.70
2019-02-16T16:08:59.884Z,12.60
2019-02-16T16:11:31.101Z,12.60
2019-02-16T16:14:14.508Z,12.60
2019-02-16T16:17:08.442Z,12.50
2019-02-16T16:19:36.999Z,12.50
2019-02-16T16:22:05.570Z,12.40
2019-02-16T16:24:34.174Z,12.30
2019-02-16T16:27:15.170Z,12.30
2019-02-16T16:30:00.364Z,12.30
2019-02-16T16:32:34.958Z,12.30
2019-02-16T16:35:03.506Z,12.20
2019-02-16T16:37:37.688Z,12.20
2019-02-16T16:40:10.324Z,12.10
2019-02-16T16:42:41.713Z,12.00
2019-02-16T16:45:16.130Z,11.90
2019-02-16T16:47:44.690Z,12.00
2019-02-16T16:50:18.845Z,11.90
2019-02-16T16:53:02.901Z,11.90
2019-02-16T16:55:37.258Z,11.80
2019-02-16T16:58:22.426Z,11.80
2019-02-16T17:01:03.017Z,11.70
2019-02-16T17:03:34.633Z,11.60
2019-02-16T17:06:06.176Z,11.60
2019-02-16T17:08:40.282Z,11.70
2019-02-16T17:11:20.811Z,11.60
2019-02-16T17:13:52.145Z,11.60
2019-02-16T17:16:26.318Z,11.50
2019-02-16T17:18:57.756Z,11.50
2019-02-16T17:21:44.425Z,11.50
2019-02-16T17:24:29.632Z,11.60
2019-02-16T17:26:58.206Z,11.50
2019-02-16T17:30:03.166Z,11.50
2019-02-16T17:32:43.830Z,11.60
2019-02-16T17:35:12.459Z,11.60
2019-02-16T17:37:57.352Z,11.60
2019-02-16T17:40:28.693Z,11.50
2019-02-16T17:43:09.375Z,11.40
2019-02-16T17:45:37.973Z,11.30
2019-02-16T17:48:24.882Z,11.20
2019-02-16T17:50:56.109Z,11.20
2019-02-16T17:53:33.527Z,11.10
2019-02-16T17:56:04.864Z,11.00
2019-02-16T17:58:33.466Z,10.80
2019-02-16T18:01:08.070Z,10.90
2019-02-16T18:03:48.444Z,11.00
2019-02-16T18:06:26.045Z,11.00
2019-02-16T18:08:54.573Z,10.90
2019-02-16T18:11:43.032Z,10.80
2019-02-16T18:14:11.606Z,10.40
2019-02-16T18:16:40.156Z,10.40
2019-02-16T18:19:08.762Z,10.30
2019-02-16T18:21:37.315Z,10.20
2019-02-16T18:24:05.915Z,10.20
2019-02-16T18:26:34.450Z,10.30
2019-02-16T18:29:08.561Z,10.40
2019-02-16T18:31:53.761Z,10.30
2019-02-16T18:34:39.147Z,10.20
2019-02-16T18:37:10.464Z,10.10
2019-02-16T18:39:39.067Z,10.10
2019-02-16T18:42:19.666Z,10.10
2019-02-16T18:44:51.201Z,10.10
2019-02-16T18:47:28.513Z,10.20
2019-02-16T18:50:06.168Z,10.00
2019-02-16T18:52:34.750Z,10.00
2019-02-16T18:55:10.681Z,10.00
2019-02-16T18:57:36.609Z,10.00
2019-02-16T19:00:08.801Z,9.70
2019-02-16T19:02:42.250Z,9.70
2019-02-16T19:05:26.974Z,9.60
2019-02-16T19:07:55.525Z,9.60
2019-02-16T19:10:24.131Z,9.40
2019-02-16T19:12:52.676Z,9.50
2019-02-16T19:15:39.465Z,9.50
2019-02-16T19:18:24.612Z,9.60
2019-02-16T19:20:55.976Z,9.40
2019-02-16T19:23:24.526Z,9.60
2019-02-16T19:25:58.742Z,9.40
2019-02-16T19:28:36.287Z,9.60
2019-02-16T19:31:22.689Z,9.60
2019-02-16T19:34:09.378Z,9.70
2019-02-16T19:36:37.966Z,9.50
2019-02-16T19:39:06.763Z,9.40
2019-02-16T19:41:38.244Z,9.70
2019-02-16T19:44:12.776Z,9.70
2019-02-16T19:46:44.092Z,9.60
2019-02-16T19:49:12.695Z,9.60
2019-02-16T19:51:50.042Z,9.50
2019-02-16T19:54:33.845Z,9.50
2019-02-16T19:57:14.477Z,9.50
2019-02-16T19:59:52.133Z,9.60
2019-02-16T20:02:20.740Z,9.40
2019-02-16T20:05:04.651Z,9.40
2019-02-16T20:07:33.346Z,9.20
2019-02-16T20:10:04.743Z,9.10
2019-02-16T20:12:33.462Z,9.20
2019-02-16T20:15:02.040Z,9.20
2019-02-16T20:17:47.567Z,9.40
2019-02-16T20:20:16.180Z,9.50
2019-02-16T20:22:54.010Z,9.40
2019-02-16T20:25:25.346Z,9.20
2019-02-16T20:28:06.010Z,9.10
2019-02-16T20:30:34.612Z,8.80
2019-02-16T20:33:12.025Z,9.10
2019-02-16T20:35:58.675Z,8.90
2019-02-16T20:38:29.809Z,8.80
2019-02-16T20:41:15.258Z,9.00
2019-02-16T20:43:46.629Z,8.80
2019-02-16T20:46:24.352Z,9.00
2019-02-16T20:49:09.579Z,8.90
2019-02-16T20:51:41.131Z,8.80
2019-02-16T20:54:21.509Z,8.70
2019-02-16T20:56:52.770Z,8.90
2019-02-16T20:59:56.237Z,8.80
2019-02-16T21:02:37.020Z,8.90
2019-02-16T21:05:06.147Z,8.90
2019-02-16T21:07:40.525Z,8.70
2019-02-16T21:10:15.581Z,8.60
2019-02-16T21:12:44.171Z,8.40
2019-02-16T21:15:21.850Z,8.50
2019-02-16T21:18:07.047Z,8.50
2019-02-16T21:20:44.385Z,8.50
2019-02-16T21:23:12.957Z,8.60
2019-02-16T21:25:44.114Z,8.50
2019-02-16T21:28:18.486Z,8.60
2019-02-16T21:30:47.052Z,8.50
2019-02-16T21:33:18.446Z,8.60
2019-02-16T21:35:49.761Z,8.70
2019-02-16T21:38:24.137Z,8.50
2019-02-16T21:41:08.078Z,8.40
2019-02-16T21:43:36.683Z,8.60
2019-02-16T21:46:05.293Z,8.30
2019-02-16T21:48:50.582Z,8.30
2019-02-16T21:51:35.750Z,8.30
2019-02-16T21:54:07.087Z,8.30
2019-02-16T21:56:41.437Z,8.30
2019-02-16T21:59:19.634Z,8.30
2019-02-16T22:01:57.327Z,8.20
2019-02-16T22:04:25.963Z,8.10
2019-02-16T22:06:57.165Z,7.90
2019-02-16T22:09:34.814Z,8.10
2019-02-16T22:12:03.349Z,8.10
2019-02-16T22:14:31.946Z,8.20
2019-02-16T22:16:58.626Z,8.10
2019-02-16T22:19:25.251Z,8.20
2019-02-16T22:21:51.969Z,7.70
2019-02-16T22:24:18.704Z,7.50
2019-02-16T22:26:45.379Z,7.20
2019-02-16T22:29:12.105Z,7.20
2019-02-16T22:31:38.790Z,7.50
2019-02-16T22:34:05.414Z,7.30
2019-02-16T22:36:32.097Z,7.60
2019-02-16T22:38:58.748Z,7.30
2019-02-16T22:41:25.374Z,7.50
2019-02-16T22:43:52.041Z,7.50
2019-02-16T22:46:18.730Z,7.30
2019-02-16T22:48:45.497Z,7.30
2019-02-16T22:51:12.288Z,7.10
2019-02-16T22:53:39.044Z,7.00
2019-02-16T22:56:05.850Z,7.20
2019-02-16T22:58:32.521Z,6.80
2019-02-16T23:00:59.529Z,6.60
2019-02-16T23:03:26.242Z,6.10
2019-02-16T23:05:52.877Z,6.80
2019-02-16T23:08:19.550Z,6.80
2019-02-16T23:10:46.190Z,6.60
2019-02-16T23:13:12.861Z,6.30
2019-02-16T23:15:39.501Z,6.40
2019-02-16T23:18:06.309Z,6.50
2019-02-16T23:20:32.990Z,6.70
2019-02-16T23:22:59.646Z,6.80
2019-02-16T23:25:26.313Z,6.90
2019-02-16T23:27:53.090Z,6.90
2019-02-16T23:30:19.730Z,6.90
2019-02-16T23:32:46.511Z,6.90
2019-02-16T23:35:13.178Z,6.60
2019-02-16T23:37:39.851Z,6.70
2019-02-16T23:40:07.267Z,6.70
2019-02-16T23:42:33.884Z,6.40
2019-02-16T23:45:00.608Z,6.50
2019-02-16T23:47:27.316Z,6.40
2019-02-16T23:49:53.962Z,6.50
2019-02-16T23:52:20.736Z,6.60
2019-02-16T23:54:47.379Z,6.50
2019-02-16T23:57:14.082Z,6.50
2019-02-16T23:59:40.801Z,6.00
